Time;durP1;ratioP1;P1;durP2;ratioP2;P2;SDS_P1;SDS_P2;PMS_P1;PMS_P2;Temp;Humidity;BMP_temperature;BMP_pressure;BME280_temperature;BME280_humidity;BME280_pressure;Samples;Min_cycle;Max_cycle;Signal;HPM_P1;HPM_P2
2021/07/23 00:01:19;;;;;;;20.92;12.48;;;;;;;22.82;60.47;101363.88;5004189;28;20036;-83
2021/07/23 00:03:45;;;;;;;16.45;11.40;;;;;;;22.65;60.43;101347.38;5018421;28;22582;-83
2021/07/23 00:06:11;;;;;;;22.75;12.00;;;;;;;22.62;60.33;101345.06;5021125;28;20029;-83
2021/07/23 00:08:36;;;;;;;20.48;12.07;;;;;;;22.59;60.80;101353.78;5022306;28;20080;-82
2021/07/23 00:11:02;;;;;;;18.13;11.77;;;;;;;22.48;61.65;101358.22;5019772;28;20032;-82
2021/07/23 00:13:27;;;;;;;18.90;12.70;;;;;;;22.50;61.80;101358.00;5010726;28;20030;-83
2021/07/23 00:15:53;;;;;;;21.17;12.90;;;;;;;22.51;61.29;101348.69;5021627;28;20106;-83
2021/07/23 00:18:18;;;;;;;19.13;12.75;;;;;;;22.54;61.32;101343.53;5023200;28;20025;-83
2021/07/23 00:20:44;;;;;;;19.30;11.98;;;;;;;22.60;61.17;101348.09;5011285;28;20037;-83
2021/07/23 00:23:09;;;;;;;19.90;11.70;;;;;;;22.58;61.50;101349.41;5011053;28;20030;-82
2021/07/23 00:25:35;;;;;;;19.52;11.73;;;;;;;22.58;61.38;101346.66;5022688;28;20503;-83
2021/07/23 00:28:01;;;;;;;17.75;12.50;;;;;;;22.60;61.55;101355.47;5021049;28;20032;-82
2021/07/23 00:30:27;;;;;;;19.10;12.25;;;;;;;22.52;61.32;101339.38;5028707;28;20761;-82
2021/07/23 00:32:52;;;;;;;17.50;12.50;;;;;;;22.44;60.80;101313.22;5022949;28;20684;-83
2021/07/23 00:35:18;;;;;;;19.30;12.13;;;;;;;22.49;61.20;101340.72;5022057;28;20693;-83
2021/07/23 00:37:43;;;;;;;19.05;11.98;;;;;;;22.61;61.16;101348.91;5027495;28;20022;-84
2021/07/23 00:40:09;;;;;;;20.45;12.45;;;;;;;22.54;61.79;101351.75;5018031;28;20033;-82
2021/07/23 00:42:35;;;;;;;21.05;11.43;;;;;;;22.36;62.27;101339.06;5005963;28;20092;-82
2021/07/23 00:45:02;;;;;;;16.20;11.23;;;;;;;22.36;62.40;101350.03;5022873;28;20026;-83
2021/07/23 00:47:27;;;;;;;19.42;11.98;;;;;;;22.33;62.36;101325.00;5004597;28;20019;-84
2021/07/23 00:49:53;;;;;;;16.25;11.20;;;;;;;22.36;62.53;101339.06;5022132;28;20026;-83
2021/07/23 00:52:18;;;;;;;21.48;12.30;;;;;;;22.19;63.24;101332.63;5006348;28;20031;-83
2021/07/23 00:54:44;;;;;;;15.00;11.95;;;;;;;22.11;63.47;101330.22;5026351;28;20422;-83
2021/07/23 00:57:09;;;;;;;18.15;11.48;;;;;;;22.13;63.36;101326.19;5002640;28;20781;-83
2021/07/23 00:59:34;;;;;;;18.02;11.43;;;;;;;22.21;63.04;101329.69;5010874;28;20052;-82
2021/07/23 01:02:00;;;;;;;18.38;11.73;;;;;;;22.04;63.72;101313.09;5011059;28;20049;-83
2021/07/23 01:04:26;;;;;;;24.58;12.38;;;;;;;22.02;63.28;101315.25;4999683;28;20029;-82
2021/07/23 01:06:51;;;;;;;15.93;10.90;;;;;;;22.01;63.40;101324.53;5004151;28;20026;-82
2021/07/23 01:09:17;;;;;;;16.92;11.90;;;;;;;21.91;63.42;101319.63;5021514;28;20061;-81
2021/07/23 01:11:42;;;;;;;20.80;12.05;;;;;;;21.83;63.32;101318.09;5014527;28;20034;-82
2021/07/23 01:14:08;;;;;;;18.98;11.40;;;;;;;21.80;63.71;101309.50;5011448;28;20045;-83
2021/07/23 01:16:33;;;;;;;21.30;10.68;;;;;;;21.87;63.10;101319.28;4998580;28;20033;-82
2021/07/23 01:19:00;;;;;;;17.10;10.70;;;;;;;21.86;62.06;101312.16;5014607;28;20030;-84
2021/07/23 01:21:27;;;;;;;17.63;10.70;;;;;;;21.90;62.17;101318.78;4997915;28;20026;-81
2021/07/23 01:23:53;;;;;;;22.00;11.43;;;;;;;21.65;62.63;101299.03;4999418;28;20057;-81
2021/07/23 01:26:19;;;;;;;15.60;11.35;;;;;;;21.40;62.89;101280.06;5012594;28;20495;-83
2021/07/23 01:28:46;;;;;;;17.33;10.80;;;;;;;21.39;64.24;101309.34;5010572;28;20034;-81
2021/07/23 01:31:12;;;;;;;20.45;11.25;;;;;;;21.12;64.77;101272.47;5005519;28;20156;-81
2021/07/23 01:33:37;;;;;;;15.73;10.82;;;;;;;21.18;64.83;101294.25;5010057;28;20117;-81
2021/07/23 01:36:03;;;;;;;21.35;11.63;;;;;;;21.23;65.18;101302.59;4997879;28;20190;-82
2021/07/23 01:38:28;;;;;;;21.20;11.95;;;;;;;21.12;65.13;101288.88;5013830;28;20415;-82
2021/07/23 01:40:55;;;;;;;16.92;11.38;;;;;;;21.05;65.68;101292.56;4995763;28;20029;-82
2021/07/23 01:43:21;;;;;;;17.95;11.57;;;;;;;21.08;66.06;101297.56;5020431;28;20039;-81
2021/07/23 01:45:47;;;;;;;17.55;11.55;;;;;;;20.98;66.17;101294.53;5005533;28;20026;-83
2021/07/23 01:48:13;;;;;;;16.55;11.25;;;;;;;20.90;66.41;101289.41;5011131;28;20033;-82
2021/07/23 01:50:38;;;;;;;18.42;11.63;;;;;;;20.88;66.42;101277.88;4997238;28;20026;-80
2021/07/23 01:53:04;;;;;;;20.05;11.52;;;;;;;20.63;66.92;101253.41;5012095;28;20026;-83
2021/07/23 01:55:30;;;;;;;19.98;11.77;;;;;;;20.83;66.99;101285.94;5014370;28;20034;-84
2021/07/23 01:57:55;;;;;;;18.85;11.57;;;;;;;20.67;67.31;101273.75;4996207;28;20022;-82
2021/07/23 02:00:20;;;;;;;18.10;11.50;;;;;;;20.69;67.95;101289.91;5010753;28;20104;-81
2021/07/23 02:02:46;;;;;;;17.35;11.43;;;;;;;20.61;67.93;101282.84;5013319;28;20125;-83
2021/07/23 02:05:12;;;;;;;20.02;11.50;;;;;;;20.56;67.88;101275.38;4999172;28;20018;-83
2021/07/23 02:07:37;;;;;;;20.00;11.88;;;;;;;20.52;68.21;101289.69;5011115;28;20113;-82
2021/07/23 02:10:05;;;;;;;20.33;11.77;;;;;;;20.52;68.43;101285.03;5009700;28;20030;-81
2021/07/23 02:12:31;;;;;;;19.77;11.73;;;;;;;20.58;68.44;101288.78;4994667;28;20021;-82
2021/07/23 02:14:56;;;;;;;17.65;11.73;;;;;;;20.53;68.48;101280.41;5010671;28;20033;-82
2021/07/23 02:17:22;;;;;;;19.60;13.00;;;;;;;20.39;68.58;101272.38;5002208;28;20033;-84
2021/07/23 02:19:47;;;;;;;16.60;11.20;;;;;;;20.39;68.79;101274.28;5010595;28;20037;-82
2021/07/23 02:22:13;;;;;;;18.83;12.25;;;;;;;20.12;69.56;101249.19;5008979;28;20021;-82
2021/07/23 02:24:38;;;;;;;18.15;12.27;;;;;;;20.23;69.61;101266.69;5009005;28;20059;-84
2021/07/23 02:27:04;;;;;;;17.58;11.43;;;;;;;20.01;70.46;101261.69;5027236;28;20026;-83
2021/07/23 02:29:29;;;;;;;22.95;12.45;;;;;;;20.08;70.58;101281.53;4990197;28;20367;-80
2021/07/23 02:31:55;;;;;;;20.15;13.15;;;;;;;20.10;70.28;101278.59;4997012;28;20030;-84
2021/07/23 02:34:20;;;;;;;19.38;11.70;;;;;;;20.01;70.73;101256.22;4995636;28;20033;-83
2021/07/23 02:36:45;;;;;;;18.65;11.45;;;;;;;20.02;71.12;101267.97;5008687;28;20026;-82
2021/07/23 02:39:11;;;;;;;20.27;12.50;;;;;;;20.01;71.25;101263.59;5007191;28;20029;-84
2021/07/23 02:41:36;;;;;;;19.25;11.50;;;;;;;19.93;71.76;101267.44;5017515;28;20030;-82
2021/07/23 02:44:02;;;;;;;18.38;12.68;;;;;;;19.84;71.48;101252.41;5018065;28;20033;-82
2021/07/23 02:46:29;;;;;;;19.33;11.63;;;;;;;19.81;72.11;101255.59;5019293;28;20036;-83
2021/07/23 02:48:54;;;;;;;20.55;13.05;;;;;;;19.82;72.01;101255.38;5001122;28;20447;-82
2021/07/23 02:51:20;;;;;;;17.42;11.88;;;;;;;19.85;72.07;101260.38;5017996;28;20048;-83
2021/07/23 02:53:45;;;;;;;19.42;12.02;;;;;;;19.84;72.02;101260.59;4999550;28;20515;-82
2021/07/23 02:56:11;;;;;;;20.70;12.98;;;;;;;19.72;72.64;101252.31;5016819;28;20030;-82
2021/07/23 02:58:40;;;;;;;19.08;11.93;;;;;;;19.79;72.79;101250.34;5017605;28;20022;-82
2021/07/23 03:01:06;;;;;;;20.13;12.07;;;;;;;19.82;72.65;101249.91;5013427;28;20026;-84
2021/07/23 03:03:31;;;;;;;20.33;12.45;;;;;;;19.65;72.91;101235.13;5000811;28;20029;-82
2021/07/23 03:05:58;;;;;;;18.77;11.82;;;;;;;19.78;72.92;101237.78;5018599;28;20030;-82
2021/07/23 03:08:23;;;;;;;18.98;11.75;;;;;;;19.72;72.80;101236.78;5011052;28;20022;-83
2021/07/23 03:10:48;;;;;;;20.80;12.13;;;;;;;19.68;72.97;101245.63;5012646;28;20036;-83
2021/07/23 03:13:14;;;;;;;18.13;11.68;;;;;;;19.58;73.28;101235.19;5008468;28;20034;-82
2021/07/23 03:15:39;;;;;;;18.58;12.23;;;;;;;19.51;73.38;101234.44;5009659;28;20263;-82
2021/07/23 03:18:05;;;;;;;21.52;12.50;;;;;;;19.51;73.50;101228.97;5007156;28;20633;-82
2021/07/23 03:20:30;;;;;;;21.70;12.82;;;;;;;19.56;73.35;101229.16;5006868;28;20030;-82
2021/07/23 03:22:55;;;;;;;20.00;12.90;;;;;;;19.52;73.39;101225.19;5008194;28;20030;-83
2021/07/23 03:25:21;;;;;;;18.05;11.65;;;;;;;19.55;73.11;101217.41;5006549;28;20025;-82
2021/07/23 03:27:46;;;;;;;22.05;11.93;;;;;;;19.57;73.03;101224.50;5002814;28;20463;-82
2021/07/23 03:30:12;;;;;;;19.85;12.82;;;;;;;19.42;72.75;101206.59;5009167;28;20427;-83
2021/07/23 03:32:38;;;;;;;19.23;12.38;;;;;;;19.55;72.73;101225.59;5010731;28;20111;-83
2021/07/23 03:35:04;;;;;;;17.90;12.35;;;;;;;19.44;73.11;101220.00;5010527;28;20034;-82
2021/07/23 03:37:29;;;;;;;18.60;12.43;;;;;;;19.45;73.03;101219.81;5008008;28;20599;-82
2021/07/23 03:39:54;;;;;;;20.45;12.35;;;;;;;19.45;72.82;101221.66;5006043;28;20034;-82
2021/07/23 03:42:20;;;;;;;18.70;12.27;;;;;;;19.41;72.76;101209.56;4998554;28;20025;-83
2021/07/23 03:44:46;;;;;;;19.83;12.45;;;;;;;19.42;72.71;101214.75;5020460;28;20021;-82
2021/07/23 03:47:11;;;;;;;18.42;12.32;;;;;;;19.37;73.10;101208.31;5017116;28;20034;-83
2021/07/23 03:49:37;;;;;;;20.45;12.70;;;;;;;19.51;72.93;101218.91;5002209;28;20034;-83
2021/07/23 03:52:03;;;;;;;21.08;12.65;;;;;;;19.49;72.64;101209.28;5002216;28;20075;-82
2021/07/23 03:54:28;;;;;;;20.70;13.23;;;;;;;19.40;72.84;101197.00;5020872;28;20045;-83
2021/07/23 03:56:53;;;;;;;18.42;12.80;;;;;;;19.52;72.79;101204.19;5015201;28;20070;-82
2021/07/23 03:59:21;;;;;;;18.83;11.70;;;;;;;19.42;72.99;101186.66;4996245;28;20026;-82
2021/07/23 04:01:46;;;;;;;16.95;13.38;;;;;;;19.25;73.58;101179.06;5016693;28;20559;-83
2021/07/23 04:04:12;;;;;;;17.67;12.65;;;;;;;19.28;73.96;101184.06;5004360;28;20033;-82
2021/07/23 04:06:37;;;;;;;17.35;12.15;;;;;;;19.28;74.01;101178.59;5004264;28;20026;-84
2021/07/23 04:09:03;;;;;;;19.08;13.35;;;;;;;19.37;73.79;101181.91;5016542;28;20033;-83
2021/07/23 04:11:31;;;;;;;20.30;12.35;;;;;;;19.39;73.28;101171.59;5019589;28;20034;-82
2021/07/23 04:13:56;;;;;;;21.42;12.38;;;;;;;19.49;73.15;101179.28;5017086;28;20040;-83
2021/07/23 04:16:22;;;;;;;18.35;11.57;;;;;;;19.59;72.73;101193.22;5015416;28;20018;-83
2021/07/23 04:18:47;;;;;;;23.13;12.80;;;;;;;19.62;72.69;101187.31;5016519;28;20021;-83
2021/07/23 04:21:12;;;;;;;18.23;12.40;;;;;;;19.75;72.08;101189.94;5007396;28;20030;-83
2021/07/23 04:23:39;;;;;;;20.92;12.80;;;;;;;19.80;72.22;101193.91;5014725;28;20551;-82
2021/07/23 04:26:04;;;;;;;18.23;12.20;;;;;;;19.53;72.21;101150.50;5019477;28;20037;-82
2021/07/23 04:28:31;;;;;;;23.13;12.68;;;;;;;19.72;72.41;101182.22;4999108;28;20030;-83
2021/07/23 04:30:56;;;;;;;21.20;13.93;;;;;;;19.70;72.46;101173.41;4997312;28;20710;-82
2021/07/23 04:33:22;;;;;;;15.88;12.43;;;;;;;19.71;72.31;101166.06;5014151;28;20034;-82
2021/07/23 04:35:47;;;;;;;21.27;13.65;;;;;;;19.82;71.97;101181.69;4997083;28;20400;-83
2021/07/23 04:38:12;;;;;;;20.42;12.93;;;;;;;19.74;71.81;101173.78;5012800;28;20033;-83
2021/07/23 04:40:38;;;;;;;17.35;12.25;;;;;;;19.68;71.81;101170.06;5004560;28;20084;-83
2021/07/23 04:43:03;;;;;;;22.33;12.70;;;;;;;19.77;71.89;101173.34;5014416;28;20026;-83
2021/07/23 04:45:29;;;;;;;17.42;12.77;;;;;;;19.74;71.99;101169.19;5005374;28;20025;-83
2021/07/23 04:47:54;;;;;;;18.90;12.32;;;;;;;19.68;71.99;101159.16;5016750;28;20734;-83
2021/07/23 04:50:20;;;;;;;19.98;13.73;;;;;;;19.74;72.05;101158.28;5011236;28;20302;-83
2021/07/23 04:52:45;;;;;;;21.65;13.52;;;;;;;19.77;72.17;101168.72;5015684;28;20026;-83
2021/07/23 04:55:12;;;;;;;19.95;13.20;;;;;;;19.79;72.19;101167.66;5019465;28;20042;-83
2021/07/23 04:57:43;;;;;;;25.83;13.10;;;;;;;19.78;72.20;101172.28;5017898;28;20056;-83
2021/07/23 05:00:09;;;;;;;21.92;12.70;;;;;;;19.72;72.69;101149.47;5009335;28;20646;-82
2021/07/23 05:02:36;;;;;;;23.08;13.60;;;;;;;19.80;72.49;101151.06;5031780;28;20025;-83
2021/07/23 05:05:02;;;;;;;20.20;14.05;;;;;;;19.91;72.39;101160.38;5016258;28;20029;-83
2021/07/23 05:07:27;;;;;;;23.63;13.48;;;;;;;19.94;72.43;101174.41;5016558;28;20034;-83
2021/07/23 05:09:52;;;;;;;24.52;15.07;;;;;;;19.91;72.46;101158.47;5019710;28;20033;-83
2021/07/23 05:12:18;;;;;;;23.73;13.02;;;;;;;19.99;72.77;101173.72;5016795;28;20627;-83
2021/07/23 05:14:43;;;;;;;20.88;13.88;;;;;;;19.96;72.64;101166.00;5001947;28;20830;-82
2021/07/23 05:17:09;;;;;;;20.15;12.82;;;;;;;19.97;72.96;101165.75;5004559;28;20034;-83
2021/07/23 05:19:35;;;;;;;19.20;13.48;;;;;;;19.93;72.95;101156.38;5021881;28;20590;-82
2021/07/23 05:22:00;;;;;;;24.33;14.18;;;;;;;20.02;73.07;101165.06;5017313;28;20038;-83
2021/07/23 05:24:26;;;;;;;23.70;15.00;;;;;;;20.06;72.56;101155.38;5017088;28;20025;-83
2021/07/23 05:26:51;;;;;;;18.35;13.48;;;;;;;20.07;72.55;101157.03;5017640;28;20022;-83
2021/07/23 05:29:17;;;;;;;24.30;14.07;;;;;;;20.11;72.77;101160.13;4999430;28;20022;-83
2021/07/23 05:31:42;;;;;;;23.17;13.65;;;;;;;20.06;73.01;101157.25;5021115;28;20026;-83
2021/07/23 05:34:08;;;;;;;24.48;15.10;;;;;;;19.96;72.80;101135.97;4996897;28;20105;-83
2021/07/23 05:36:33;;;;;;;22.23;14.57;;;;;;;20.08;73.13;101141.47;5000500;28;20507;-83
2021/07/23 05:38:59;;;;;;;24.35;14.50;;;;;;;20.16;73.07;101157.53;5017177;28;20028;-82
2021/07/23 05:41:24;;;;;;;26.25;14.75;;;;;;;20.25;73.04;101153.44;5020703;28;20566;-83
2021/07/23 05:43:50;;;;;;;21.08;13.52;;;;;;;20.28;72.74;101158.44;5018779;28;20751;-82
2021/07/23 05:46:15;;;;;;;20.35;13.65;;;;;;;20.31;72.76;101157.16;5018153;28;20455;-82
2021/07/23 05:48:41;;;;;;;23.15;14.80;;;;;;;20.40;72.25;101151.16;5021294;28;20045;-82
2021/07/23 05:51:08;;;;;;;20.50;14.63;;;;;;;20.55;72.13;101158.09;5017303;28;20097;-83
2021/07/23 05:53:34;;;;;;;23.25;14.55;;;;;;;20.45;72.03;101142.25;5012060;28;20030;-83
2021/07/23 05:56:00;;;;;;;20.73;13.15;;;;;;;20.55;71.77;101150.75;5017731;28;20045;-82
2021/07/23 05:58:29;;;;;;;19.63;13.55;;;;;;;20.62;71.50;101159.69;5021027;28;20023;-83
2021/07/23 06:00:56;;;;;;;20.10;13.30;;;;;;;20.68;71.55;101157.09;5008925;28;20035;-82
2021/07/23 06:03:22;;;;;;;19.88;13.48;;;;;;;20.47;71.83;101121.00;5012936;28;20025;-82
2021/07/23 06:05:48;;;;;;;23.77;13.98;;;;;;;20.69;71.61;101147.81;5015324;28;21469;-82
2021/07/23 06:08:13;;;;;;;22.65;13.68;;;;;;;20.74;71.95;101150.69;5019602;28;20129;-82
2021/07/23 06:10:39;;;;;;;19.25;13.20;;;;;;;20.80;71.61;101150.59;5000151;28;20038;-83
2021/07/23 06:13:05;;;;;;;21.63;14.13;;;;;;;20.89;71.73;101151.06;5013827;28;20049;-78
2021/07/23 06:15:30;;;;;;;19.45;13.02;;;;;;;21.18;71.07;101156.72;5021492;28;20037;-79
2021/07/23 06:17:57;;;;;;;19.55;13.45;;;;;;;21.29;70.76;101158.59;4997269;28;20128;-79
2021/07/23 06:20:22;;;;;;;19.25;14.30;;;;;;;21.31;70.23;101145.53;5011779;28;20021;-80
2021/07/23 06:22:54;;;;;;;19.48;13.63;;;;;;;21.44;70.41;101156.28;5016039;28;20065;-80
2021/07/23 06:25:19;;;;;;;21.35;14.02;;;;;;;21.55;69.67;101162.81;5017876;28;20024;-79
2021/07/23 06:27:47;;;;;;;19.02;13.30;;;;;;;21.59;69.66;101158.50;5009259;28;20029;-79
2021/07/23 06:30:12;;;;;;;21.45;13.63;;;;;;;21.57;69.49;101154.38;5006249;28;20036;-79
2021/07/23 06:32:38;;;;;;;19.77;14.15;;;;;;;21.60;69.82;101154.72;5005787;28;20034;-80
2021/07/23 06:35:03;;;;;;;22.83;13.63;;;;;;;21.58;69.73;101137.69;5011910;28;20021;-83
2021/07/23 06:37:29;;;;;;;20.38;13.55;;;;;;;21.58;69.79;101145.91;5011601;28;20025;-79
2021/07/23 06:39:54;;;;;;;19.52;13.15;;;;;;;21.63;69.94;101148.75;5011016;28;20033;-79
2021/07/23 06:42:20;;;;;;;21.35;13.93;;;;;;;21.73;69.87;101156.38;5006632;28;20084;-81
2021/07/23 06:44:47;;;;;;;21.48;14.23;;;;;;;21.70;69.62;101143.16;5008982;28;20033;-79
2021/07/23 06:47:12;;;;;;;21.02;13.55;;;;;;;21.67;69.17;101133.53;5012141;28;20052;-79
2021/07/23 06:49:37;;;;;;;24.88;14.60;;;;;;;21.70;69.25;101143.16;5009455;28;20030;-79
2021/07/23 06:52:03;;;;;;;19.83;13.35;;;;;;;21.70;69.34;101141.25;5013201;28;20038;-79
2021/07/23 06:54:29;;;;;;;20.23;13.07;;;;;;;21.68;69.38;101134.34;5016699;28;20037;-80
2021/07/23 06:56:55;;;;;;;20.10;13.68;;;;;;;21.69;69.40;101136.00;5019015;28;20136;-79
2021/07/23 06:59:20;;;;;;;22.02;12.07;;;;;;;21.71;69.50;101122.94;5017885;28;20143;-80
2021/07/23 07:01:46;;;;;;;23.38;14.05;;;;;;;21.80;69.44;101137.88;5018590;28;20033;-79
2021/07/23 07:04:11;;;;;;;20.58;13.48;;;;;;;21.81;69.16;101127.78;5011156;28;20025;-80
2021/07/23 07:06:37;;;;;;;23.80;13.13;;;;;;;21.94;68.94;101133.81;5016821;28;20116;-79
2021/07/23 07:09:02;;;;;;;19.98;15.13;;;;;;;22.08;67.84;101139.03;5014903;28;20029;-79
2021/07/23 07:11:28;;;;;;;19.58;11.88;;;;;;;22.12;67.82;101140.19;5016886;28;20033;-79
2021/07/23 07:13:54;;;;;;;18.50;13.10;;;;;;;22.15;67.54;101134.25;5018875;28;20432;-79
2021/07/23 07:16:19;;;;;;;18.45;12.80;;;;;;;22.24;67.68;101143.75;5013746;28;20041;-79
2021/07/23 07:18:45;;;;;;;22.95;14.43;;;;;;;22.25;67.51;101136.34;5015891;28;20025;-80
2021/07/23 07:21:12;;;;;;;17.33;12.65;;;;;;;22.28;67.32;101133.13;5019549;28;20028;-79
2021/07/23 07:23:37;;;;;;;21.80;13.77;;;;;;;22.34;66.83;101143.13;5017360;28;20056;-79
2021/07/23 07:26:03;;;;;;;17.45;12.40;;;;;;;22.44;66.49;101131.50;5012043;28;20022;-80
2021/07/23 07:28:28;;;;;;;22.23;14.45;;;;;;;22.60;66.59;101136.22;5011244;28;20033;-80
2021/07/23 07:30:53;;;;;;;21.00;13.10;;;;;;;22.60;66.43;101134.31;5012677;28;20033;-80
2021/07/23 07:33:19;;;;;;;22.05;12.85;;;;;;;22.59;66.50;101137.28;5012122;28;20029;-80
2021/07/23 07:35:45;;;;;;;21.85;13.30;;;;;;;22.58;66.44;101128.22;5012402;28;20121;-79
2021/07/23 07:38:11;;;;;;;21.33;13.13;;;;;;;22.63;66.37;101141.19;5015693;28;20406;-80
2021/07/23 07:40:38;;;;;;;19.75;13.00;;;;;;;22.61;66.28;101130.47;5024247;28;20037;-79
2021/07/23 07:43:06;;;;;;;20.05;12.98;;;;;;;22.66;66.03;101123.44;5014868;28;20029;-81
2021/07/23 07:45:32;;;;;;;21.25;13.05;;;;;;;22.77;65.98;101126.09;5009602;28;20057;-78
2021/07/23 07:47:57;;;;;;;20.60;12.40;;;;;;;22.88;65.72;101126.25;5013271;28;20080;-79
2021/07/23 07:50:22;;;;;;;21.63;13.18;;;;;;;22.95;65.75;101124.19;5012295;28;20050;-81
2021/07/23 07:52:48;;;;;;;21.33;13.45;;;;;;;23.00;65.22;101114.16;5016290;28;20093;-81
2021/07/23 07:55:13;;;;;;;18.80;12.60;;;;;;;23.21;64.92;101119.97;5015289;28;20028;-81
2021/07/23 07:57:41;;;;;;;19.00;13.52;;;;;;;23.27;65.00;101124.44;5017917;28;20022;-80
2021/07/23 08:00:10;;;;;;;18.35;13.00;;;;;;;23.39;64.79;101121.59;5017117;28;20030;-79
2021/07/23 08:02:36;;;;;;;18.90;12.85;;;;;;;23.54;64.24;101124.56;5012946;28;20030;-79
2021/07/23 08:05:01;;;;;;;18.35;13.00;;;;;;;23.60;63.91;101108.97;5013063;28;20079;-79
2021/07/23 08:07:32;;;;;;;21.38;11.82;;;;;;;23.81;64.13;101119.16;5002496;28;20044;-79
2021/07/23 08:10:01;;;;;;;19.13;13.48;;;;;;;23.91;63.16;101115.72;5008748;28;20079;-79
2021/07/23 08:12:27;;;;;;;19.35;13.85;;;;;;;24.05;62.87;101111.50;5007248;28;20030;-78
2021/07/23 08:14:52;;;;;;;17.08;12.95;;;;;;;24.13;62.28;101113.81;4990534;28;20030;-79
2021/07/23 08:17:18;;;;;;;17.20;12.60;;;;;;;24.17;61.83;101102.28;5012115;28;20019;-80
2021/07/23 08:19:44;;;;;;;20.58;12.32;;;;;;;24.30;61.53;101115.63;5016301;28;20022;-79
2021/07/23 08:22:10;;;;;;;24.10;12.82;;;;;;;24.46;61.10;101120.22;5017352;28;20026;-79
2021/07/23 08:24:35;;;;;;;17.98;12.23;;;;;;;24.63;61.04;101105.53;5018646;28;20026;-82
2021/07/23 08:27:01;;;;;;;21.50;13.02;;;;;;;24.74;60.61;101107.25;5017136;28;20042;-83
2021/07/23 08:29:27;;;;;;;18.85;13.10;;;;;;;24.86;60.08;101113.44;5015569;28;20416;-82
2021/07/23 08:31:52;;;;;;;16.35;11.93;;;;;;;25.01;60.02;101110.78;4999246;28;20033;-83
2021/07/23 08:34:18;;;;;;;20.42;12.85;;;;;;;25.10;59.62;101107.56;5020094;28;20027;-82
2021/07/23 08:36:44;;;;;;;15.90;11.57;;;;;;;25.20;59.21;101108.47;5010576;28;20017;-83
2021/07/23 08:39:09;;;;;;;17.92;12.45;;;;;;;25.22;59.16;101106.31;5018552;28;20080;-82
2021/07/23 08:41:35;;;;;;;22.83;12.77;;;;;;;25.33;58.80;101098.09;5016709;28;20026;-83
2021/07/23 08:44:04;;;;;;;16.88;12.32;;;;;;;25.27;58.74;101071.63;5012741;28;20017;-82
2021/07/23 08:46:29;;;;;;;18.50;11.98;;;;;;;25.54;58.55;101102.63;5019942;28;20025;-83
2021/07/23 08:48:57;;;;;;;21.75;13.27;;;;;;;25.77;57.54;101101.34;5021988;28;20079;-82
2021/07/23 08:51:22;;;;;;;25.30;12.77;;;;;;;25.86;57.11;101085.16;5012971;28;20022;-83
2021/07/23 08:53:48;;;;;;;20.48;12.98;;;;;;;25.97;56.70;101099.81;5019079;28;20105;-83
2021/07/23 08:56:13;;;;;;;20.15;12.20;;;;;;;25.98;56.79;101093.19;5017484;28;20558;-83
2021/07/23 08:58:39;;;;;;;19.45;12.15;;;;;;;26.12;56.39;101097.09;5019947;28;20052;-83
2021/07/23 09:01:06;;;;;;;16.42;12.20;;;;;;;26.00;55.71;101089.06;5018822;28;20032;-84
2021/07/23 09:03:33;;;;;;;19.60;12.45;;;;;;;26.01;56.02;101084.38;5016217;28;20114;-83
2021/07/23 09:06:13;;;;;;;17.70;12.45;;;;;;;26.07;56.43;101078.63;5019152;28;20034;-83
2021/07/23 09:08:54;;;;;;;21.92;11.88;;;;;;;26.17;55.96;101077.81;5018250;28;20049;-82
2021/07/23 09:11:27;;;;;;;20.80;12.95;;;;;;;26.27;56.40;101082.50;5022580;28;20033;-83
2021/07/23 09:14:12;;;;;;;19.95;12.50;;;;;;;26.23;56.33;101068.47;5010128;28;21322;-83
2021/07/23 09:16:37;;;;;;;16.48;11.38;;;;;;;26.25;56.12;101071.78;5014257;28;20025;-83
2021/07/23 09:19:08;;;;;;;18.92;12.20;;;;;;;26.22;56.15;101080.56;5010054;28;20027;-83
2021/07/23 09:21:38;;;;;;;15.40;11.75;;;;;;;26.21;56.38;101073.41;5011561;28;20175;-83
2021/07/23 09:24:07;;;;;;;21.92;13.15;;;;;;;26.33;56.56;101081.44;4990197;28;20501;-77
2021/07/23 09:26:44;;;;;;;19.88;12.23;;;;;;;26.51;56.15;101082.81;5008581;28;20091;-76
2021/07/23 09:29:10;;;;;;;20.00;13.20;;;;;;;26.63;55.92;101072.38;5004170;28;20113;-76
2021/07/23 09:31:36;;;;;;;14.52;11.73;;;;;;;26.86;55.44;101081.19;5023698;28;20116;-76
2021/07/23 09:34:05;;;;;;;20.10;12.40;;;;;;;26.91;54.59;101075.66;5008155;28;20026;-76
2021/07/23 09:36:32;;;;;;;17.88;12.27;;;;;;;26.94;54.66;101061.34;5001843;28;20073;-76
2021/07/23 09:39:03;;;;;;;20.10;12.40;;;;;;;27.20;54.23;101070.41;5003371;28;20044;-76
2021/07/23 09:41:29;;;;;;;19.85;12.98;;;;;;;27.38;53.61;101063.44;5004215;28;20030;-76
2021/07/23 09:43:58;;;;;;;15.77;11.45;;;;;;;27.38;53.46;101068.97;5007459;28;20862;-76
2021/07/23 09:46:26;;;;;;;18.65;12.38;;;;;;;27.39;53.44;101062.38;4980534;28;20512;-76
2021/07/23 09:48:52;;;;;;;22.15;12.65;;;;;;;27.46;53.69;101068.41;5007525;28;20029;-76
2021/07/23 09:51:19;;;;;;;23.08;12.15;;;;;;;27.60;52.67;101054.78;5009201;28;20030;-76
2021/07/23 09:53:45;;;;;;;19.15;11.75;;;;;;;27.86;52.43;101051.97;5003350;28;20026;-77
2021/07/23 09:56:11;;;;;;;18.98;12.70;;;;;;;27.95;51.38;101056.59;5005158;28;20029;-77
2021/07/23 09:58:41;;;;;;;21.30;12.80;;;;;;;28.02;50.95;101050.75;5005137;28;20399;-77
2021/07/23 10:01:28;;;;;;;19.75;11.93;;;;;;;27.62;51.53;101047.88;5004016;28;20028;-77
2021/07/23 10:03:58;;;;;;;16.88;12.10;;;;;;;27.45;52.97;101041.06;5004978;28;20088;-76
2021/07/23 10:06:34;;;;;;;20.30;12.45;;;;;;;27.48;53.43;101041.31;5006734;28;20091;-76
2021/07/23 10:09:04;;;;;;;17.60;12.20;;;;;;;27.52;53.10;101042.44;5000727;28;20105;-76
2021/07/23 10:11:30;;;;;;;23.80;12.88;;;;;;;27.52;52.73;101039.66;4997842;28;20030;-76
2021/07/23 10:13:56;;;;;;;20.35;12.45;;;;;;;27.48;53.53;101041.31;5000775;28;20030;-76
2021/07/23 10:16:22;;;;;;;36.80;13.25;;;;;;;27.42;53.80;101044.41;5020585;28;20033;-76
2021/07/23 10:18:49;;;;;;;22.30;12.35;;;;;;;27.29;53.48;101038.38;5007236;28;20491;-77
2021/07/23 10:21:14;;;;;;;18.30;11.45;;;;;;;27.13;53.72;101037.56;5020361;28;20030;-76
2021/07/23 10:23:43;;;;;;;17.45;11.93;;;;;;;27.04;53.89;101044.72;5006109;28;20153;-76
2021/07/23 10:26:08;;;;;;;18.85;13.43;;;;;;;26.93;53.92;101037.59;5013661;28;20384;-76
2021/07/23 10:28:40;;;;;;;19.10;12.32;;;;;;;26.84;54.50;101026.31;5003848;28;20476;-77
2021/07/23 10:31:18;;;;;;;21.38;12.18;;;;;;;26.74;55.13;101038.16;5004718;28;20038;-77
2021/07/23 10:33:49;;;;;;;19.08;12.40;;;;;;;26.71;55.20;101037.91;5001579;28;20014;-77
2021/07/23 10:36:27;;;;;;;19.55;13.30;;;;;;;26.75;56.10;101036.22;5001346;28;20044;-76
2021/07/23 10:39:04;;;;;;;17.08;12.85;;;;;;;26.85;55.62;101035.41;5004657;28;20033;-77
2021/07/23 10:41:31;;;;;;;16.75;11.25;;;;;;;26.82;54.95;101024.91;5002203;28;20026;-76
2021/07/23 10:43:56;;;;;;;22.63;12.75;;;;;;;26.95;54.59;101036.22;4990937;28;20145;-77
2021/07/23 10:46:48;;;;;;;16.15;12.20;;;;;;;27.28;53.89;101041.41;5003266;28;20037;-77
2021/07/23 10:49:34;;;;;;;;;;;;;;;27.82;52.81;101035.13;5008180;28;20448;-76
2021/07/23 10:52:01;;;;;;;23.23;11.82;;;;;;;28.36;51.31;101033.38;5001152;28;19923;-76
2021/07/23 10:54:34;;;;;;;19.23;12.65;;;;;;;28.81;49.64;101029.41;5002364;28;20033;-78
2021/07/23 10:57:03;;;;;;;20.33;12.60;;;;;;;29.18;48.32;101033.47;5004876;28;20491;-78
2021/07/23 10:59:43;;;;;;;20.88;12.10;;;;;;;29.51;48.21;101028.13;4999905;28;20678;-75
2021/07/23 11:02:15;;;;;;;17.60;12.05;;;;;;;29.67;47.83;101029.59;5003839;28;20472;-78
2021/07/23 11:04:41;;;;;;;17.05;11.65;;;;;;;29.75;46.42;101020.63;5003106;28;20461;-77
2021/07/23 11:07:08;;;;;;;17.25;10.88;;;;;;;29.76;45.17;101021.44;4998247;28;20037;-76